Galileo — SX2040 — position and weather

sailwx.info

Track history (hours):
 
Tides and Currents Weather Stations Pressure Air Temp Water Temp Dewpoint Dewpoint Depression Visibility Wind Speed Wind Dir Waves Ship Positions

Galileo

Last reported at 2015-Jul-01 05:33 UTC. Time now 2015-Jul-01 06:33 UTC.
Position N 37°28' E 025°20'.

Length 40 m; draft 3 m.

Type: Passenger vessel. MMSI: 239299000.

Date/timePositionNaut miles runAvg speedWind from/ knotsBaromVisibWave heightAir tempDewpointWater temp
2015-Jul-01 05:33N 37°28' E 025°20'3 3.1
2015-Jul-01 04:33N 37°25' E 025°17'9 8.5
2015-Jul-01 03:33N 37°17' E 025°14'9 9.4
2015-Jul-01 02:33N 37°09' E 025°09'4 0.4
2015-Jun-30 16:29N 37°05' E 025°09'0 0.0
2015-Jun-30 14:07N 37°05' E 025°09'0 0.0
2015-Jun-30 09:33N 37°05' E 025°09'1 0.6
2015-Jun-30 08:33N 37°06' E 025°08'0 0.0
2015-Jun-30 07:34N 37°06' E 025°08'38 7.2
2015-Jun-30 02:13N 36°29' E 025°21'5 7.6
2015-Jun-30 01:32N 36°25' E 025°26'0 0.0
2015-Jun-30 00:33N 36°25' E 025°26'0 0.0
2015-Jun-29 23:33N 36°25' E 025°26'0 0.0
2015-Jun-29 22:32N 36°25' E 025°26'0 0.0
2015-Jun-29 21:33N 36°25' E 025°26'0 0.0
2015-Jun-29 20:33N 36°25' E 025°26'0 0.0
2015-Jun-29 19:32N 36°25' E 025°26'0 0.0
2015-Jun-29 18:32N 36°25' E 025°26'0 0.0
2015-Jun-29 17:33N 36°25' E 025°26'0 0.0
2015-Jun-29 16:32N 36°25' E 025°26'0 0.0
2015-Jun-29 15:33N 36°25' E 025°26'0 0.0
2015-Jun-29 14:33N 36°25' E 025°26'0 0.0
2015-Jun-29 13:32N 36°25' E 025°26'0 0.0
2015-Jun-29 06:32N 36°25' E 025°26'0 0.0
2015-Jun-29 05:33N 36°25' E 025°26'0 0.3
2015-Jun-29 04:32N 36°25' E 025°25'9 9.3
2015-Jun-29 03:33N 36°30' E 025°16'17 8.3
2015-Jun-29 01:33N 36°37' E 024°57'0 0.0
2015-Jun-29 00:33N 36°37' E 024°57'0 0.0
2015-Jun-28 23:32N 36°37' E 024°57'0 0.0
2015-Jun-28 22:31N 36°37' E 024°57'0 0.0
2015-Jun-28 21:33N 36°37' E 024°57'0 0.0
2015-Jun-28 20:34N 36°37' E 024°57'0 0.0
2015-Jun-28 19:30N 36°37' E 024°57'0 0.0
2015-Jun-28 18:32N 36°37' E 024°57'0 0.1
2015-Jun-28 17:29N 36°37' E 024°57'0 0.1
2015-Jun-28 16:32N 36°37' E 024°57'0 0.0
2015-Jun-28 15:33N 36°37' E 024°57'0 0.0
2015-Jun-28 14:32N 36°37' E 024°57'87 5.8
2015-Jun-27 23:33N 37°32' E 023°32'4 4.4
2015-Jun-27 22:33N 37°30' E 023°27'0 0.1
2015-Jun-27 21:33N 37°30' E 023°27'0 0.0
2015-Jun-27 20:33N 37°30' E 023°27'0 0.0
2015-Jun-27 19:33N 37°30' E 023°27'0 0.0
2015-Jun-27 18:33N 37°30' E 023°27'0 0.0
2015-Jun-27 17:33N 37°30' E 023°27'0 0.0
2015-Jun-27 16:33N 37°30' E 023°27'3 2.6
2015-Jun-27 15:21N 37°33' E 023°27'910.3
2015-Jun-27 14:27N 37°41' E 023°33'910.4
2015-Jun-27 13:33N 37°50' E 023°37'6 6.2
2015-Jun-27 12:33N 37°56' E 023°39'0 0.0
2015-Jun-27 11:33N 37°56' E 023°39'0 0.0
2015-Jun-27 10:34N 37°56' E 023°39'0 0.0
2015-Jun-27 09:33N 37°56' E 023°39'0 0.0
2015-Jun-27 08:33N 37°56' E 023°39'0 0.0
2015-Jun-27 07:33N 37°56' E 023°39'0 0.0
2015-Jun-27 06:33N 37°56' E 023°39'0 0.0
2015-Jun-27 05:33N 37°56' E 023°39'0 0.0
2015-Jun-27 04:33N 37°56' E 023°39'0 0.0
2015-Jun-27 03:33N 37°56' E 023°39'0 0.0
2015-Jun-27 02:33N 37°56' E 023°39'0 0.0
2015-Jun-27 01:33N 37°56' E 023°39'0 0.0
2015-Jun-27 00:33N 37°56' E 023°39'0 0.0
2015-Jun-26 23:33N 37°56' E 023°39'0 0.0
2015-Jun-26 22:34N 37°56' E 023°39'0 0.0
2015-Jun-26 21:33N 37°56' E 023°39'0 0.0
2015-Jun-26 20:33N 37°56' E 023°39'0 0.0
2015-Jun-26 19:33N 37°56' E 023°39'0 0.0
2015-Jun-26 18:33N 37°56' E 023°39'0 0.0
2015-Jun-26 17:33N 37°56' E 023°39'0 0.0
2015-Jun-26 16:33N 37°56' E 023°39'2 1.6
2015-Jun-26 15:33N 37°54' E 023°40'1010.3
2015-Jun-26 14:33N 37°45' E 023°45'56 5.1
2015-Jun-26 03:33N 37°20' E 024°48'1010.3
2015-Jun-26 02:34N 37°23' E 025°01'5 4.8
2015-Jun-26 01:33N 37°27' E 024°57'0 0.0
2015-Jun-26 00:33N 37°27' E 024°57'0 0.0
2015-Jun-25 23:32N 37°27' E 024°57'0 0.0
2015-Jun-25 22:33N 37°27' E 024°57'0 0.0
2015-Jun-25 21:32N 37°27' E 024°57'0 0.0
2015-Jun-25 20:32N 37°27' E 024°57'0 0.0
2015-Jun-25 19:33N 37°27' E 024°57'0 0.0
2015-Jun-25 18:33N 37°27' E 024°57'0 0.0
2015-Jun-25 17:33N 37°27' E 024°57'0 0.0
2015-Jun-25 16:33N 37°27' E 024°57'0 0.0
2015-Jun-25 15:32N 37°27' E 024°57'0 0.0
2015-Jun-25 14:34N 37°27' E 024°57'0 0.0
2015-Jun-25 13:33N 37°27' E 024°57'0 0.0
2015-Jun-25 12:33N 37°27' E 024°57'0 0.0
2015-Jun-25 11:33N 37°27' E 024°57'0 0.0
2015-Jun-25 10:33N 37°27' E 024°57'0 0.0
2015-Jun-25 09:33N 37°27' E 024°57'2 2.0
2015-Jun-25 08:33N 37°25' E 024°59'0 0.0
2015-Jun-25 07:33N 37°25' E 024°59'1 0.5
2015-Jun-25 06:34N 37°25' E 024°59'10 9.8
2015-Jun-25 05:34N 37°27' E 025°11'7 6.6
2015-Jun-25 04:34N 37°28' E 025°20'0 0.0
2015-Jun-25 03:34N 37°28' E 025°20'0 0.0
2015-Jun-25 02:34N 37°28' E 025°20'0 0.0
2015-Jun-25 01:33N 37°28' E 025°20'0 0.0
2015-Jun-25 00:34N 37°28' E 025°20'0 0.0
2015-Jun-24 23:34N 37°28' E 025°20'0 0.0
2015-Jun-24 22:34N 37°28' E 025°20'0 0.0
2015-Jun-24 21:34N 37°28' E 025°20'0 0.0
2015-Jun-24 20:34N 37°28' E 025°20'0 0.0
2015-Jun-24 19:34N 37°28' E 025°20'0 0.0
2015-Jun-24 18:33N 37°28' E 025°20'0 0.0
2015-Jun-24 17:33N 37°28' E 025°20'0 0.0
2015-Jun-24 16:33N 37°28' E 025°20'0 0.0
2015-Jun-24 15:33N 37°28' E 025°20'0 0.0
2015-Jun-24 14:33N 37°28' E 025°20'0 0.0
2015-Jun-24 13:33N 37°28' E 025°20'0 0.0
2015-Jun-24 12:33N 37°28' E 025°20'0 0.0
2015-Jun-24 11:34N 37°28' E 025°20'0 0.0
2015-Jun-24 10:34N 37°28' E 025°20'0 0.0
2015-Jun-24 09:33N 37°28' E 025°20'0 0.0
2015-Jun-24 08:34N 37°28' E 025°20'0 0.0
2015-Jun-24 07:34N 37°28' E 025°20'0 0.0
2015-Jun-24 06:34N 37°28' E 025°20'0 0.0
2015-Jun-24 05:33N 37°28' E 025°20'0 0.4
2015-Jun-24 04:33N 37°28' E 025°19'9 8.6
2015-Jun-24 03:33N 37°20' E 025°15'10 9.7
2015-Jun-24 02:34N 37°11' E 025°10'6 0.9
2015-Jun-23 20:09N 37°05' E 025°09'42 1.7
2015-Jun-22 19:32N 36°25' E 025°26'0 0.0
2015-Jun-22 18:33N 36°25' E 025°26'0 0.0
2015-Jun-22 17:33N 36°25' E 025°26'0 0.0
2015-Jun-22 16:32N 36°25' E 025°26'0 0.0
2015-Jun-22 15:32N 36°25' E 025°26'0 0.0
2015-Jun-22 14:33N 36°25' E 025°26'0 0.0
2015-Jun-22 13:32N 36°25' E 025°26'0 0.0
2015-Jun-22 12:29N 36°25' E 025°26'0 0.0
2015-Jun-22 11:32N 36°25' E 025°26'0 0.0
2015-Jun-22 10:33N 36°25' E 025°26'0 0.0
2015-Jun-22 09:32N 36°25' E 025°26'0 0.0
2015-Jun-22 08:33N 36°25' E 025°26'0 0.0
2015-Jun-22 07:32N 36°25' E 025°26'0 0.0
2015-Jun-22 06:33N 36°25' E 025°26'0 0.0
2015-Jun-22 05:33N 36°25' E 025°26'0 0.0
2015-Jun-22 04:32N 36°25' E 025°26'7 6.9
2015-Jun-22 03:33N 36°29' E 025°19'19 9.2
2015-Jun-22 01:27N 36°37' E 024°57'0 0.0
2015-Jun-22 00:33N 36°37' E 024°57'0 0.0
2015-Jun-21 23:28N 36°37' E 024°57'0 0.0
2015-Jun-21 22:30N 36°37' E 024°57'0 0.0
2015-Jun-21 21:19N 36°37' E 024°57'0 0.0
2015-Jun-21 20:29N 36°37' E 024°57'0 0.0
2015-Jun-21 19:33N 36°37' E 024°57'0 0.0
2015-Jun-21 15:29N 36°37' E 024°57'0 0.0
2015-Jun-21 14:21N 36°37' E 024°57'0 0.0
2015-Jun-21 13:24N 36°37' E 024°57'  
Track history (hours):
 
Tides and Currents Weather Stations Pressure Air Temp Water Temp Dewpoint Dewpoint Depression Visibility Wind Speed Wind Dir Waves Ship Positions

Galileo

Last reported at 2015-Jul-01 05:33 UTC. Time now 2015-Jul-01 06:33 UTC.
Position N 37°28' E 025°20'.

Length 40 m; draft 3 m.

Type: Passenger vessel. MMSI: 239299000.

Date/timePositionNaut miles runAvg speedWind from/ knotsBaromVisibWave heightAir tempDewpointWater temp
2015-Jul-01 05:33N 37°28' E 025°20'3 3.1
2015-Jul-01 04:33N 37°25' E 025°17'9 8.5
2015-Jul-01 03:33N 37°17' E 025°14'9 9.4
2015-Jul-01 02:33N 37°09' E 025°09'4 0.4
2015-Jun-30 16:29N 37°05' E 025°09'0 0.0
2015-Jun-30 14:07N 37°05' E 025°09'0 0.0
2015-Jun-30 09:33N 37°05' E 025°09'1 0.6
2015-Jun-30 08:33N 37°06' E 025°08'0 0.0
2015-Jun-30 07:34N 37°06' E 025°08'38 7.2
2015-Jun-30 02:13N 36°29' E 025°21'5 7.6
2015-Jun-30 01:32N 36°25' E 025°26'0 0.0
2015-Jun-30 00:33N 36°25' E 025°26'0 0.0
2015-Jun-29 23:33N 36°25' E 025°26'0 0.0
2015-Jun-29 22:32N 36°25' E 025°26'0 0.0
2015-Jun-29 21:33N 36°25' E 025°26'0 0.0
2015-Jun-29 20:33N 36°25' E 025°26'0 0.0
2015-Jun-29 19:32N 36°25' E 025°26'0 0.0
2015-Jun-29 18:32N 36°25' E 025°26'0 0.0
2015-Jun-29 17:33N 36°25' E 025°26'0 0.0
2015-Jun-29 16:32N 36°25' E 025°26'0 0.0
2015-Jun-29 15:33N 36°25' E 025°26'0 0.0
2015-Jun-29 14:33N 36°25' E 025°26'0 0.0
2015-Jun-29 13:32N 36°25' E 025°26'0 0.0
2015-Jun-29 06:32N 36°25' E 025°26'0 0.0
2015-Jun-29 05:33N 36°25' E 025°26'0 0.3
2015-Jun-29 04:32N 36°25' E 025°25'9 9.3
2015-Jun-29 03:33N 36°30' E 025°16'17 8.3
2015-Jun-29 01:33N 36°37' E 024°57'0 0.0
2015-Jun-29 00:33N 36°37' E 024°57'0 0.0
2015-Jun-28 23:32N 36°37' E 024°57'0 0.0
2015-Jun-28 22:31N 36°37' E 024°57'0 0.0
2015-Jun-28 21:33N 36°37' E 024°57'0 0.0
2015-Jun-28 20:34N 36°37' E 024°57'0 0.0
2015-Jun-28 19:30N 36°37' E 024°57'0 0.0
2015-Jun-28 18:32N 36°37' E 024°57'0 0.1
2015-Jun-28 17:29N 36°37' E 024°57'0 0.1
2015-Jun-28 16:32N 36°37' E 024°57'0 0.0
2015-Jun-28 15:33N 36°37' E 024°57'0 0.0
2015-Jun-28 14:32N 36°37' E 024°57'87 5.8
2015-Jun-27 23:33N 37°32' E 023°32'4 4.4
2015-Jun-27 22:33N 37°30' E 023°27'0 0.1
2015-Jun-27 21:33N 37°30' E 023°27'0 0.0
2015-Jun-27 20:33N 37°30' E 023°27'0 0.0
2015-Jun-27 19:33N 37°30' E 023°27'0 0.0
2015-Jun-27 18:33N 37°30' E 023°27'0 0.0
2015-Jun-27 17:33N 37°30' E 023°27'0 0.0
2015-Jun-27 16:33N 37°30' E 023°27'3 2.6
2015-Jun-27 15:21N 37°33' E 023°27'910.3
2015-Jun-27 14:27N 37°41' E 023°33'910.4
2015-Jun-27 13:33N 37°50' E 023°37'6 6.2
2015-Jun-27 12:33N 37°56' E 023°39'0 0.0
2015-Jun-27 11:33N 37°56' E 023°39'0 0.0
2015-Jun-27 10:34N 37°56' E 023°39'0 0.0
2015-Jun-27 09:33N 37°56' E 023°39'0 0.0
2015-Jun-27 08:33N 37°56' E 023°39'0 0.0
2015-Jun-27 07:33N 37°56' E 023°39'0 0.0
2015-Jun-27 06:33N 37°56' E 023°39'0 0.0
2015-Jun-27 05:33N 37°56' E 023°39'0 0.0
2015-Jun-27 04:33N 37°56' E 023°39'0 0.0
2015-Jun-27 03:33N 37°56' E 023°39'0 0.0
2015-Jun-27 02:33N 37°56' E 023°39'0 0.0
2015-Jun-27 01:33N 37°56' E 023°39'0 0.0
2015-Jun-27 00:33N 37°56' E 023°39'0 0.0
2015-Jun-26 23:33N 37°56' E 023°39'0 0.0
2015-Jun-26 22:34N 37°56' E 023°39'0 0.0
2015-Jun-26 21:33N 37°56' E 023°39'0 0.0
2015-Jun-26 20:33N 37°56' E 023°39'0 0.0
2015-Jun-26 19:33N 37°56' E 023°39'0 0.0
2015-Jun-26 18:33N 37°56' E 023°39'0 0.0
2015-Jun-26 17:33N 37°56' E 023°39'0 0.0
2015-Jun-26 16:33N 37°56' E 023°39'2 1.6
2015-Jun-26 15:33N 37°54' E 023°40'1010.3
2015-Jun-26 14:33N 37°45' E 023°45'56 5.1
2015-Jun-26 03:33N 37°20' E 024°48'1010.3
2015-Jun-26 02:34N 37°23' E 025°01'5 4.8
2015-Jun-26 01:33N 37°27' E 024°57'0 0.0
2015-Jun-26 00:33N 37°27' E 024°57'0 0.0
2015-Jun-25 23:32N 37°27' E 024°57'0 0.0
2015-Jun-25 22:33N 37°27' E 024°57'0 0.0
2015-Jun-25 21:32N 37°27' E 024°57'0 0.0
2015-Jun-25 20:32N 37°27' E 024°57'0 0.0
2015-Jun-25 19:33N 37°27' E 024°57'0 0.0
2015-Jun-25 18:33N 37°27' E 024°57'0 0.0
2015-Jun-25 17:33N 37°27' E 024°57'0 0.0
2015-Jun-25 16:33N 37°27' E 024°57'0 0.0
2015-Jun-25 15:32N 37°27' E 024°57'0 0.0
2015-Jun-25 14:34N 37°27' E 024°57'0 0.0
2015-Jun-25 13:33N 37°27' E 024°57'0 0.0
2015-Jun-25 12:33N 37°27' E 024°57'0 0.0
2015-Jun-25 11:33N 37°27' E 024°57'0 0.0
2015-Jun-25 10:33N 37°27' E 024°57'0 0.0
2015-Jun-25 09:33N 37°27' E 024°57'2 2.0
2015-Jun-25 08:33N 37°25' E 024°59'0 0.0
2015-Jun-25 07:33N 37°25' E 024°59'1 0.5
2015-Jun-25 06:34N 37°25' E 024°59'10 9.8
2015-Jun-25 05:34N 37°27' E 025°11'7 6.6
2015-Jun-25 04:34N 37°28' E 025°20'0 0.0
2015-Jun-25 03:34N 37°28' E 025°20'0 0.0
2015-Jun-25 02:34N 37°28' E 025°20'0 0.0
2015-Jun-25 01:33N 37°28' E 025°20'0 0.0
2015-Jun-25 00:34N 37°28' E 025°20'0 0.0
2015-Jun-24 23:34N 37°28' E 025°20'0 0.0
2015-Jun-24 22:34N 37°28' E 025°20'0 0.0
2015-Jun-24 21:34N 37°28' E 025°20'0 0.0
2015-Jun-24 20:34N 37°28' E 025°20'0 0.0
2015-Jun-24 19:34N 37°28' E 025°20'0 0.0
2015-Jun-24 18:33N 37°28' E 025°20'0 0.0
2015-Jun-24 17:33N 37°28' E 025°20'0 0.0
2015-Jun-24 16:33N 37°28' E 025°20'0 0.0
2015-Jun-24 15:33N 37°28' E 025°20'0 0.0
2015-Jun-24 14:33N 37°28' E 025°20'0 0.0
2015-Jun-24 13:33N 37°28' E 025°20'0 0.0
2015-Jun-24 12:33N 37°28' E 025°20'0 0.0
2015-Jun-24 11:34N 37°28' E 025°20'0 0.0
2015-Jun-24 10:34N 37°28' E 025°20'0 0.0
2015-Jun-24 09:33N 37°28' E 025°20'0 0.0
2015-Jun-24 08:34N 37°28' E 025°20'0 0.0
2015-Jun-24 07:34N 37°28' E 025°20'0 0.0
2015-Jun-24 06:34N 37°28' E 025°20'0 0.0
2015-Jun-24 05:33N 37°28' E 025°20'0 0.4
2015-Jun-24 04:33N 37°28' E 025°19'9 8.6
2015-Jun-24 03:33N 37°20' E 025°15'10 9.7
2015-Jun-24 02:34N 37°11' E 025°10'6 0.9
2015-Jun-23 20:09N 37°05' E 025°09'42 1.7
2015-Jun-22 19:32N 36°25' E 025°26'0 0.0
2015-Jun-22 18:33N 36°25' E 025°26'0 0.0
2015-Jun-22 17:33N 36°25' E 025°26'0 0.0
2015-Jun-22 16:32N 36°25' E 025°26'0 0.0
2015-Jun-22 15:32N 36°25' E 025°26'0 0.0
2015-Jun-22 14:33N 36°25' E 025°26'0 0.0
2015-Jun-22 13:32N 36°25' E 025°26'0 0.0
2015-Jun-22 12:29N 36°25' E 025°26'0 0.0
2015-Jun-22 11:32N 36°25' E 025°26'0 0.0
2015-Jun-22 10:33N 36°25' E 025°26'0 0.0
2015-Jun-22 09:32N 36°25' E 025°26'0 0.0
2015-Jun-22 08:33N 36°25' E 025°26'0 0.0
2015-Jun-22 07:32N 36°25' E 025°26'0 0.0
2015-Jun-22 06:33N 36°25' E 025°26'0 0.0
2015-Jun-22 05:33N 36°25' E 025°26'0 0.0
2015-Jun-22 04:32N 36°25' E 025°26'7 6.9
2015-Jun-22 03:33N 36°29' E 025°19'19 9.2
2015-Jun-22 01:27N 36°37' E 024°57'0 0.0
2015-Jun-22 00:33N 36°37' E 024°57'0 0.0
2015-Jun-21 23:28N 36°37' E 024°57'0 0.0
2015-Jun-21 22:30N 36°37' E 024°57'0 0.0
2015-Jun-21 21:19N 36°37' E 024°57'0 0.0
2015-Jun-21 20:29N 36°37' E 024°57'0 0.0
2015-Jun-21 19:33N 36°37' E 024°57'0 0.0
2015-Jun-21 15:29N 36°37' E 024°57'0 0.0
2015-Jun-21 14:21N 36°37' E 024°57'0 0.0
2015-Jun-21 13:24N 36°37' E 024°57'  

Dump ship's entire track history